Time;durP1;ratioP1;P1;durP2;ratioP2;P2;SDS_P1;SDS_P2;PMS_P1;PMS_P2;Temp;Humidity;BMP_temperature;BMP_pressure;BME280_temperature;BME280_humidity;BME280_pressure;Samples;Min_cycle;Max_cycle;Signal;HPM_P1;HPM_P2
2023/11/16 00:02:23;;;;;;;7.63;0.73;;;8.70;99.90;;;;;;5097557;28;20498;-70
2023/11/16 00:04:49;;;;;;;6.60;0.43;;;8.80;99.90;;;;;;5067911;28;20036;-69
2023/11/16 00:07:15;;;;;;;3.10;0.47;;;8.70;99.90;;;;;;5070001;28;20076;-69
2023/11/16 00:09:41;;;;;;;4.90;0.50;;;8.70;99.90;;;;;;5068811;28;20601;-69
2023/11/16 00:12:06;;;;;;;3.70;0.55;;;8.70;99.90;;;;;;5071341;28;20032;-69
2023/11/16 00:14:34;;;;;;;7.35;1.48;;;8.70;99.90;;;;;;5068053;28;20036;-69
2023/11/16 00:17:00;;;;;;;4.85;0.40;;;8.60;99.90;;;;;;5070151;28;20078;-69
2023/11/16 00:19:26;;;;;;;2.85;0.45;;;8.60;99.90;;;;;;5063769;28;20166;-69
2023/11/16 00:21:52;;;;;;;4.60;0.70;;;8.60;99.90;;;;;;5067310;28;20044;-69
2023/11/16 00:24:19;;;;;;;4.97;0.57;;;8.50;99.90;;;;;;5068787;28;20037;-69
2023/11/16 00:26:45;;;;;;;4.65;0.93;;;8.50;99.90;;;;;;5079586;28;20044;-70
2023/11/16 00:29:11;;;;;;;10.38;0.95;;;8.50;99.90;;;;;;5077490;28;20047;-69
2023/11/16 00:31:37;;;;;;;5.60;0.77;;;7.90;99.90;;;;;;5076103;28;20701;-69
2023/11/16 00:34:03;;;;;;;6.72;0.95;;;8.60;99.90;;;;;;5075229;28;20055;-69
2023/11/16 00:36:29;;;;;;;2.72;0.55;;;8.60;99.90;;;;;;5076473;28;20098;-69
2023/11/16 00:38:58;;;;;;;7.38;0.40;;;8.60;99.90;;;;;;5074922;28;20036;-69
2023/11/16 00:41:27;;;;;;;4.45;0.50;;;8.70;99.90;;;;;;5072724;28;20040;-69
2023/11/16 00:43:53;;;;;;;5.63;0.82;;;8.70;99.90;;;;;;5107497;28;20047;-70
2023/11/16 00:46:21;;;;;;;5.13;0.47;;;8.70;99.90;;;;;;5075690;28;20040;-70
2023/11/16 00:48:48;;;;;;;7.00;0.60;;;8.70;99.90;;;;;;5076324;28;20120;-69
2023/11/16 00:51:14;;;;;;;6.22;0.70;;;8.80;99.90;;;;;;5074151;28;20056;-70
2023/11/16 00:53:42;;;;;;;7.97;0.85;;;8.80;99.90;;;;;;5075753;28;20398;-69
2023/11/16 00:56:13;;;;;;;6.43;0.98;;;8.90;99.90;;;;;;5075455;28;20074;-70
2023/11/16 00:58:39;;;;;;;7.78;0.90;;;8.80;99.90;;;;;;5072930;28;20048;-70
2023/11/16 01:01:05;;;;;;;3.83;0.60;;;8.90;99.90;;;;;;5074764;28;20375;-70
2023/11/16 01:03:32;;;;;;;6.72;0.70;;;8.80;99.90;;;;;;5106824;28;20364;-69
2023/11/16 01:05:58;;;;;;;10.40;1.27;;;8.80;99.90;;;;;;5075542;28;20039;-70
2023/11/16 01:08:23;;;;;;;7.47;1.13;;;8.80;99.90;;;;;;5073756;28;20105;-70
2023/11/16 01:10:49;;;;;;;5.15;0.68;;;8.70;99.90;;;;;;5074146;28;20040;-69
2023/11/16 01:13:23;;;;;;;4.30;0.40;;;8.80;99.90;;;;;;5102742;28;20044;-69
2023/11/16 01:15:50;;;;;;;6.25;0.68;;;8.80;99.90;;;;;;5076014;28;20043;-69
2023/11/16 01:18:16;;;;;;;9.10;2.00;;;8.80;99.90;;;;;;5076739;28;20033;-69
2023/11/16 01:20:42;;;;;;;6.28;0.52;;;8.70;99.90;;;;;;5073221;28;20048;-70
2023/11/16 01:23:16;;;;;;;5.18;0.50;;;8.70;99.90;;;;;;5073299;28;21889;-69
2023/11/16 01:25:51;;;;;;;8.02;1.20;;;8.70;99.90;;;;;;5074874;28;20123;-69
2023/11/16 01:28:20;;;;;;;3.38;0.35;;;8.70;99.90;;;;;;5077540;28;20093;-69
2023/11/16 01:30:46;;;;;;;8.15;0.75;;;8.70;99.90;;;;;;5074047;28;20043;-69
2023/11/16 01:33:11;;;;;;;4.85;0.35;;;8.70;99.90;;;;;;5071752;28;20036;-69
2023/11/16 01:35:41;;;;;;;5.22;1.00;;;8.70;99.90;;;;;;5077227;28;20032;-69
2023/11/16 01:38:07;;;;;;;8.15;0.55;;;8.80;99.90;;;;;;5069951;28;20045;-69
2023/11/16 01:40:33;;;;;;;8.45;1.00;;;8.80;99.90;;;;;;5071315;28;20039;-70
2023/11/16 01:43:00;;;;;;;7.45;0.70;;;8.80;99.90;;;;;;5069367;28;20048;-69
2023/11/16 01:45:30;;;;;;;7.22;0.77;;;8.80;99.90;;;;;;5071413;28;20063;-70
2023/11/16 01:48:06;;;;;;;7.70;1.17;;;8.80;99.90;;;;;;5072071;28;20043;-69
2023/11/16 01:50:34;;;;;;;6.03;1.13;;;8.70;99.90;;;;;;5072898;28;20040;-70
2023/11/16 01:53:06;;;;;;;4.85;0.80;;;8.70;99.90;;;;;;5070409;28;20045;-69
2023/11/16 01:55:36;;;;;;;4.75;0.50;;;8.70;99.90;;;;;;5070636;28;20050;-69
2023/11/16 01:58:05;;;;;;;6.85;0.50;;;8.70;99.90;;;;;;5071508;28;20048;-69
2023/11/16 02:00:36;;;;;;;5.25;0.93;;;8.60;99.90;;;;;;5071130;28;20072;-69
2023/11/16 02:03:04;;;;;;;7.57;0.70;;;8.50;99.90;;;;;;5067736;28;20656;-70
2023/11/16 02:05:32;;;;;;;7.95;0.60;;;8.60;99.90;;;;;;5073101;28;20127;-69
2023/11/16 02:07:59;;;;;;;3.80;0.63;;;8.50;99.90;;;;;;5070337;28;20083;-69
2023/11/16 02:10:25;;;;;;;5.95;0.60;;;8.50;99.90;;;;;;5070105;28;20052;-69
2023/11/16 02:12:52;;;;;;;5.30;0.60;;;8.40;99.90;;;;;;5068492;28;20036;-70
2023/11/16 02:15:17;;;;;;;6.80;0.50;;;8.40;99.90;;;;;;5066652;28;20553;-70
2023/11/16 02:17:43;;;;;;;2.95;0.40;;;8.40;99.90;;;;;;5071874;28;20037;-70
2023/11/16 02:20:10;;;;;;;2.95;0.47;;;8.30;99.90;;;;;;5070342;28;20044;-70
2023/11/16 02:22:38;;;;;;;3.13;0.77;;;8.30;99.90;;;;;;5070253;28;20051;-69
2023/11/16 02:25:05;;;;;;;7.57;0.75;;;8.20;99.90;;;;;;5069694;28;20036;-69
2023/11/16 02:27:31;;;;;;;4.82;0.43;;;8.20;99.90;;;;;;5071326;28;20068;-69
2023/11/16 02:29:57;;;;;;;6.10;0.65;;;8.20;99.90;;;;;;5069128;28;20044;-69
2023/11/16 02:32:25;;;;;;;8.40;0.45;;;8.10;99.90;;;;;;5070511;28;20131;-69
2023/11/16 02:34:54;;;;;;;2.28;0.35;;;8.10;99.90;;;;;;5071309;28;20392;-70
2023/11/16 02:37:20;;;;;;;5.68;1.05;;;8.10;99.90;;;;;;5071935;28;20075;-70
2023/11/16 02:39:45;;;;;;;7.43;0.55;;;8.10;99.90;;;;;;5069919;28;20110;-69
2023/11/16 02:42:13;;;;;;;3.67;0.30;;;8.00;99.90;;;;;;5068801;28;20040;-70
2023/11/16 02:44:42;;;;;;;5.60;0.93;;;8.00;99.90;;;;;;5069399;28;21578;-69
2023/11/16 02:47:08;;;;;;;3.38;0.40;;;8.00;99.90;;;;;;5070518;28;20043;-69
2023/11/16 02:49:34;;;;;;;5.15;0.30;;;7.90;99.90;;;;;;5071030;28;20028;-69
2023/11/16 02:52:00;;;;;;;10.13;0.60;;;7.90;99.90;;;;;;5071109;28;20090;-69
2023/11/16 02:54:26;;;;;;;3.42;0.47;;;7.90;99.90;;;;;;5068985;28;20064;-69
2023/11/16 02:56:53;;;;;;;3.70;0.82;;;7.80;99.90;;;;;;5069539;28;20037;-69
2023/11/16 02:59:19;;;;;;;4.78;0.52;;;7.80;99.90;;;;;;5071084;28;20456;-70
2023/11/16 03:01:44;;;;;;;6.45;0.98;;;7.70;99.90;;;;;;5098552;27;20072;-69
2023/11/16 03:04:10;;;;;;;8.85;0.70;;;7.70;99.90;;;;;;5068457;28;20616;-69
2023/11/16 03:06:39;;;;;;;2.53;0.30;;;7.60;99.90;;;;;;5103641;28;20123;-69
2023/11/16 03:09:05;;;;;;;2.90;0.40;;;7.60;99.90;;;;;;5067524;28;20135;-69
2023/11/16 03:11:35;;;;;;;4.07;0.68;;;7.50;99.90;;;;;;5070177;28;20127;-69
2023/11/16 03:14:01;;;;;;;3.65;0.45;;;7.50;99.90;;;;;;5069996;28;20052;-69
2023/11/16 03:16:26;;;;;;;7.80;0.47;;;7.50;99.90;;;;;;5069626;28;20856;-69
2023/11/16 03:18:52;;;;;;;2.72;0.40;;;7.50;99.90;;;;;;5069244;28;20248;-70
2023/11/16 03:21:18;;;;;;;3.53;0.52;;;7.40;99.90;;;;;;5064941;28;20048;-70
2023/11/16 03:23:44;;;;;;;3.83;0.60;;;7.40;99.90;;;;;;5065803;28;20155;-70
2023/11/16 03:26:10;;;;;;;5.68;0.50;;;7.30;99.90;;;;;;5067862;28;20028;-70
2023/11/16 03:28:36;;;;;;;7.57;0.50;;;7.30;99.90;;;;;;5070592;28;20047;-69
2023/11/16 03:31:05;;;;;;;2.60;0.50;;;7.40;99.90;;;;;;5068917;28;20131;-69
2023/11/16 03:33:34;;;;;;;2.20;0.30;;;7.30;99.90;;;;;;5067080;28;20043;-69
2023/11/16 03:36:00;;;;;;;2.78;0.55;;;7.20;99.90;;;;;;5067792;28;20556;-69
2023/11/16 03:38:26;;;;;;;4.07;1.13;;;7.20;99.90;;;;;;5067060;28;20039;-69
2023/11/16 03:40:52;;;;;;;5.53;0.77;;;7.10;99.90;;;;;;5068539;28;20095;-69
2023/11/16 03:43:18;;;;;;;5.43;0.88;;;7.10;99.90;;;;;;5063858;28;20099;-69
2023/11/16 03:45:44;;;;;;;3.15;0.32;;;7.10;99.90;;;;;;5069817;28;20066;-69
2023/11/16 03:48:11;;;;;;;4.95;0.60;;;7.00;99.90;;;;;;5072117;28;20037;-69
2023/11/16 03:50:39;;;;;;;5.43;0.40;;;7.00;99.90;;;;;;5070751;28;20040;-69
2023/11/16 03:53:06;;;;;;;3.88;0.50;;;7.00;99.90;;;;;;5070892;28;20047;-69
2023/11/16 03:55:32;;;;;;;4.43;0.65;;;7.00;99.90;;;;;;5071044;28;20055;-69
2023/11/16 03:57:57;;;;;;;8.95;0.80;;;7.00;99.90;;;;;;5068841;28;20130;-69
2023/11/16 04:00:25;;;;;;;4.65;0.35;;;6.90;99.90;;;;;;5068569;28;20032;-69
2023/11/16 04:02:51;;;;;;;5.30;1.05;;;6.90;99.90;;;;;;5064139;28;20047;-69
2023/11/16 04:05:18;;;;;;;3.67;0.52;;;6.90;99.90;;;;;;5069413;28;20475;-69
2023/11/16 04:07:44;;;;;;;3.08;0.60;;;6.90;99.90;;;;;;5071105;28;20603;-69
2023/11/16 04:10:12;;;;;;;4.88;0.30;;;6.80;99.90;;;;;;5070768;28;20048;-69
2023/11/16 04:12:40;;;;;;;6.70;1.27;;;6.80;99.90;;;;;;5068792;28;20394;-69
2023/11/16 04:15:13;;;;;;;5.25;0.45;;;6.80;99.90;;;;;;5067687;28;20411;-69
2023/11/16 04:17:39;;;;;;;6.32;0.30;;;6.70;99.90;;;;;;5098363;28;20033;-69
2023/11/16 04:20:07;;;;;;;5.05;0.50;;;6.70;99.90;;;;;;5067911;28;20436;-69
2023/11/16 04:22:38;;;;;;;4.97;0.40;;;6.60;99.90;;;;;;5067875;28;20536;-69
2023/11/16 04:25:25;;;;;;;6.18;0.73;;;6.60;99.90;;;;;;5069429;28;20491;-69
2023/11/16 04:27:50;;;;;;;;;;;6.60;99.90;;;;;;5071204;28;20032;-69
2023/11/16 04:30:17;;;;;;;6.93;0.40;;;6.60;99.90;;;;;;5067400;28;19927;-69
2023/11/16 04:32:45;;;;;;;5.28;0.43;;;6.60;99.90;;;;;;5084816;28;20073;-69
2023/11/16 04:35:13;;;;;;;2.67;0.40;;;6.60;99.90;;;;;;5074866;28;20048;-69
2023/11/16 04:37:39;;;;;;;4.22;0.30;;;6.60;99.90;;;;;;5069107;28;20080;-69
2023/11/16 04:40:08;;;;;;;3.75;0.75;;;6.60;99.90;;;;;;5068562;28;20087;-69
2023/11/16 04:42:34;;;;;;;3.60;0.60;;;6.60;99.90;;;;;;5067300;28;20078;-69
2023/11/16 04:45:01;;;;;;;5.60;0.43;;;6.50;99.90;;;;;;5069895;28;20103;-69
2023/11/16 04:47:27;;;;;;;6.97;0.43;;;6.50;99.90;;;;;;5071708;28;20033;-69
2023/11/16 04:49:52;;;;;;;2.30;0.20;;;6.50;99.90;;;;;;5068898;28;20119;-69
2023/11/16 04:52:18;;;;;;;3.08;0.32;;;6.40;99.90;;;;;;5066548;28;20048;-69
2023/11/16 04:54:43;;;;;;;4.72;0.25;;;6.40;99.90;;;;;;5068664;28;20496;-69
2023/11/16 04:57:09;;;;;;;2.08;0.50;;;6.30;99.90;;;;;;5068630;28;20089;-69
2023/11/16 04:59:34;;;;;;;2.90;0.32;;;6.30;99.90;;;;;;5067028;28;20497;-69
2023/11/16 05:02:00;;;;;;;3.08;0.43;;;6.60;99.90;;;;;;5065164;28;20120;-69
2023/11/16 05:04:26;;;;;;;7.53;0.60;;;6.30;99.90;;;;;;5098551;28;20041;-69
2023/11/16 05:06:51;;;;;;;4.35;0.80;;;6.30;99.90;;;;;;5067923;28;20166;-69
2023/11/16 05:09:17;;;;;;;4.35;0.35;;;6.20;99.90;;;;;;5069393;28;20064;-69
2023/11/16 05:11:42;;;;;;;2.13;0.30;;;6.10;99.90;;;;;;5073999;28;20051;-69
2023/11/16 05:14:08;;;;;;;3.38;0.30;;;6.10;99.90;;;;;;5072234;28;20101;-69
2023/11/16 05:16:34;;;;;;;2.50;0.20;;;6.10;99.90;;;;;;5069136;28;20044;-70
2023/11/16 05:19:00;;;;;;;1.20;0.17;;;6.00;99.90;;;;;;5071946;28;20135;-69
2023/11/16 05:21:26;;;;;;;6.65;0.40;;;6.00;99.90;;;;;;5073688;28;20056;-69
2023/11/16 05:23:52;;;;;;;2.17;0.25;;;5.90;99.90;;;;;;5071958;28;20049;-69
2023/11/16 05:26:17;;;;;;;6.40;0.43;;;5.90;99.90;;;;;;5083350;28;20116;-69
2023/11/16 05:28:43;;;;;;;2.67;0.30;;;5.90;99.90;;;;;;5070523;28;20036;-69
2023/11/16 05:31:09;;;;;;;1.27;0.22;;;5.70;99.90;;;;;;5102631;27;20036;-69
2023/11/16 05:33:35;;;;;;;6.97;0.30;;;5.70;99.90;;;;;;5072690;28;20141;-69
2023/11/16 05:36:01;;;;;;;1.05;0.17;;;5.70;99.90;;;;;;5067116;28;20048;-69
2023/11/16 05:38:27;;;;;;;2.38;0.20;;;5.60;99.90;;;;;;5067339;28;20079;-69
2023/11/16 05:40:52;;;;;;;3.78;0.40;;;5.50;99.90;;;;;;5067725;28;20048;-69
2023/11/16 05:43:18;;;;;;;4.00;0.35;;;5.40;99.90;;;;;;5068594;28;20041;-69
2023/11/16 05:45:44;;;;;;;2.33;0.22;;;5.40;99.90;;;;;;5070786;28;20496;-69
2023/11/16 05:48:10;;;;;;;1.23;0.10;;;5.30;99.90;;;;;;5069980;28;20078;-69
2023/11/16 05:50:36;;;;;;;1.92;0.30;;;5.60;99.90;;;;;;5070519;28;20502;-69
2023/11/16 05:53:02;;;;;;;3.30;0.35;;;5.30;99.90;;;;;;5068517;28;20446;-69
2023/11/16 05:55:31;;;;;;;2.47;0.38;;;5.20;99.90;;;;;;5071568;28;20041;-69
2023/11/16 05:57:57;;;;;;;2.90;0.30;;;5.20;99.90;;;;;;5068401;28;20170;-69
2023/11/16 06:00:23;;;;;;;4.72;0.30;;;5.20;99.90;;;;;;5066740;28;20044;-69
2023/11/16 06:02:48;;;;;;;2.72;0.20;;;5.20;99.90;;;;;;5067156;28;20463;-69
2023/11/16 06:05:14;;;;;;;1.65;0.20;;;5.20;99.90;;;;;;5067543;28;20040;-69
2023/11/16 06:07:39;;;;;;;0.65;0.10;;;5.10;99.90;;;;;;5066651;28;20037;-69
2023/11/16 06:10:06;;;;;;;3.13;0.20;;;5.10;99.90;;;;;;5066438;28;20483;-69
2023/11/16 06:12:32;;;;;;;4.25;0.35;;;5.10;99.90;;;;;;5067396;28;20037;-69
2023/11/16 06:15:00;;;;;;;2.05;0.15;;;5.00;99.90;;;;;;5071034;28;20471;-69
2023/11/16 06:17:26;;;;;;;4.40;0.20;;;4.90;99.90;;;;;;5069207;28;20045;-69
2023/11/16 06:19:52;;;;;;;3.10;0.20;;;5.00;99.90;;;;;;5070468;28;20032;-69
2023/11/16 06:22:17;;;;;;;3.08;0.20;;;4.90;99.90;;;;;;5070253;28;20059;-69
2023/11/16 06:24:43;;;;;;;0.75;0.10;;;4.90;99.90;;;;;;5068737;28;20037;-69
2023/11/16 06:27:09;;;;;;;4.40;0.68;;;4.90;99.90;;;;;;5068911;28;20044;-69
2023/11/16 06:29:35;;;;;;;2.05;0.28;;;4.80;99.90;;;;;;5070047;28;20041;-68
2023/11/16 06:32:05;;;;;;;1.85;0.25;;;4.80;99.90;;;;;;5070117;28;20859;-69
2023/11/16 06:34:36;;;;;;;1.75;0.20;;;4.80;99.90;;;;;;5069986;28;20578;-69
2023/11/16 06:37:04;;;;;;;3.35;0.52;;;5.60;99.90;;;;;;5069227;28;20399;-68
2023/11/16 06:39:29;;;;;;;1.75;0.20;;;4.70;99.90;;;;;;5066917;28;20040;-68
2023/11/16 06:41:56;;;;;;;1.13;0.20;;;4.60;99.90;;;;;;5068005;28;20036;-69
2023/11/16 06:44:21;;;;;;;3.25;0.32;;;4.50;99.90;;;;;;5068445;28;20560;-68
2023/11/16 06:46:47;;;;;;;3.70;0.30;;;4.50;99.90;;;;;;5069040;28;20029;-68
2023/11/16 06:49:13;;;;;;;1.83;0.85;;;4.40;99.90;;;;;;5068992;28;20055;-68
2023/11/16 06:51:38;;;;;;;2.75;0.95;;;4.30;99.90;;;;;;5097155;27;20045;-69
2023/11/16 06:54:06;;;;;;;5.97;0.50;;;4.40;99.90;;;;;;5067350;28;20059;-68
2023/11/16 06:56:33;;;;;;;6.63;0.50;;;4.40;99.90;;;;;;5066791;28;20511;-68
2023/11/16 06:59:00;;;;;;;2.03;0.32;;;4.50;99.90;;;;;;5068376;28;20046;-68
2023/11/16 07:01:29;;;;;;;2.05;0.28;;;4.50;99.90;;;;;;5064606;28;20040;-68
2023/11/16 07:03:55;;;;;;;1.85;0.30;;;4.50;99.90;;;;;;5065840;28;20098;-68
2023/11/16 07:06:21;;;;;;;1.02;0.20;;;4.50;99.90;;;;;;5062147;28;20024;-68
2023/11/16 07:08:47;;;;;;;2.25;0.20;;;4.40;99.90;;;;;;5065438;28;20043;-68
2023/11/16 07:11:15;;;;;;;2.72;0.20;;;4.50;99.90;;;;;;5063299;28;20068;-69
2023/11/16 07:13:40;;;;;;;2.55;0.30;;;4.50;99.90;;;;;;5095333;28;20114;-68
2023/11/16 07:16:06;;;;;;;2.13;0.68;;;4.40;99.90;;;;;;5066570;28;20498;-68
2023/11/16 07:18:32;;;;;;;1.98;0.10;;;4.40;99.90;;;;;;5066339;28;20047;-68
2023/11/16 07:20:58;;;;;;;2.05;0.40;;;4.50;99.90;;;;;;5068786;28;20381;-68
2023/11/16 07:23:25;;;;;;;1.25;0.30;;;4.50;99.90;;;;;;5065159;28;20044;-68
2023/11/16 07:25:51;;;;;;;3.00;0.40;;;4.50;99.90;;;;;;5062395;28;20044;-68
2023/11/16 07:28:18;;;;;;;2.15;0.20;;;4.40;99.90;;;;;;5062924;28;20059;-68
2023/11/16 07:30:44;;;;;;;4.68;0.30;;;4.50;99.90;;;;;;5064786;28;20055;-68
2023/11/16 07:33:15;;;;;;;1.85;0.38;;;4.50;99.90;;;;;;5080171;28;20044;-68
2023/11/16 07:35:41;;;;;;;3.78;1.02;;;4.50;99.90;;;;;;5068956;28;20051;-68
2023/11/16 07:38:09;;;;;;;1.50;0.30;;;4.50;99.90;;;;;;5103168;28;20105;-68
2023/11/16 07:40:34;;;;;;;1.20;0.20;;;4.50;99.90;;;;;;5069253;28;20040;-68
2023/11/16 07:43:00;;;;;;;4.35;1.10;;;4.60;99.90;;;;;;5066068;28;20049;-68
2023/11/16 07:45:27;;;;;;;5.97;0.43;;;4.60;99.90;;;;;;5068571;28;20032;-68
2023/11/16 07:47:55;;;;;;;4.07;0.50;;;4.70;99.90;;;;;;5097187;28;20044;-68
2023/11/16 07:50:21;;;;;;;1.23;0.20;;;4.70;99.90;;;;;;5097031;27;20044;-68
2023/11/16 07:52:47;;;;;;;3.53;0.40;;;4.70;99.90;;;;;;5050507;28;20043;-68
2023/11/16 07:55:16;;;;;;;3.33;0.95;;;4.80;99.90;;;;;;5070867;28;20040;-68
2023/11/16 07:57:43;;;;;;;2.38;0.40;;;4.80;99.90;;;;;;5065729;28;20094;-68
2023/11/16 08:00:16;;;;;;;3.97;0.50;;;4.90;99.90;;;;;;5062225;28;20072;-68
2023/11/16 08:05:30;;;;;;;4.07;0.65;;;5.10;99.90;;;;;;5066064;28;20040;-68
2023/11/16 08:07:56;;;;;;;3.15;0.88;;;5.10;99.90;;;;;;5064436;28;20040;-68
2023/11/16 08:10:23;;;;;;;6.90;4.32;;;5.20;99.90;;;;;;5066562;28;20044;-68
2023/11/16 08:12:50;;;;;;;5.70;2.72;;;5.20;99.90;;;;;;5069821;28;20052;-68
2023/11/16 08:15:16;;;;;;;6.93;1.42;;;5.30;99.90;;;;;;5070982;28;20029;-68
2023/11/16 08:17:42;;;;;;;5.07;1.00;;;5.30;99.90;;;;;;5067734;28;20040;-68
2023/11/16 08:20:08;;;;;;;3.75;0.45;;;5.30;99.90;;;;;;5065799;28;20059;-69
2023/11/16 08:22:34;;;;;;;3.78;0.85;;;5.40;99.90;;;;;;5068206;28;20438;-69
2023/11/16 08:25:01;;;;;;;4.68;0.73;;;5.40;99.90;;;;;;5069385;28;20128;-69
2023/11/16 08:27:28;;;;;;;8.77;1.00;;;5.50;99.90;;;;;;5066864;28;20419;-68
2023/11/16 08:29:54;;;;;;;9.20;1.25;;;5.60;99.90;;;;;;5068401;28;20110;-69
2023/11/16 08:32:19;;;;;;;4.53;1.52;;;5.70;99.90;;;;;;5071016;28;20527;-68
2023/11/16 08:34:45;;;;;;;4.35;0.60;;;5.80;99.90;;;;;;5068750;28;20040;-68
2023/11/16 08:37:12;;;;;;;3.55;0.50;;;5.80;99.90;;;;;;5100225;28;20036;-68
2023/11/16 08:39:38;;;;;;;3.28;0.35;;;5.80;99.90;;;;;;5067488;28;20513;-69
2023/11/16 08:42:05;;;;;;;6.72;0.63;;;5.90;99.90;;;;;;5100434;28;20108;-69
2023/11/16 08:44:33;;;;;;;3.38;0.45;;;6.00;99.90;;;;;;5066129;28;20391;-68
2023/11/16 08:47:03;;;;;;;5.30;0.68;;;6.00;99.90;;;;;;5071229;28;20471;-68
2023/11/16 08:49:31;;;;;;;2.08;0.50;;;6.10;99.90;;;;;;5101735;28;20120;-68
2023/11/16 08:51:58;;;;;;;5.43;1.10;;;6.10;99.90;;;;;;5075919;28;20410;-69
2023/11/16 08:54:26;;;;;;;3.65;0.52;;;6.10;99.90;;;;;;5073371;28;20115;-69
2023/11/16 08:56:51;;;;;;;2.92;0.50;;;6.30;99.90;;;;;;5069223;28;20048;-68
2023/11/16 08:59:17;;;;;;;5.45;0.68;;;6.20;99.90;;;;;;5069949;28;20041;-68
2023/11/16 09:01:43;;;;;;;4.80;0.50;;;6.30;99.90;;;;;;5065173;28;20508;-68
2023/11/16 09:04:12;;;;;;;4.30;0.85;;;6.30;99.90;;;;;;5101439;28;20040;-68
2023/11/16 09:06:39;;;;;;;4.80;0.82;;;6.30;99.90;;;;;;5068216;28;20439;-68
2023/11/16 09:09:35;;;;;;;5.35;1.00;;;6.40;99.90;;;;;;5070458;28;20048;-68
2023/11/16 09:11:58;;;;;;;6.60;0.65;;;6.40;99.90;;;;;;5072855;28;20391;-68
2023/11/16 09:14:24;;;;;;;5.97;1.40;;;6.50;99.90;;;;;;5066140;28;20044;-68
2023/11/16 09:16:51;;;;;;;5.90;0.82;;;6.50;99.90;;;;;;5071071;28;20501;-68
2023/11/16 09:19:17;;;;;;;1.80;0.30;;;6.60;99.90;;;;;;5061673;28;20060;-68
2023/11/16 09:21:44;;;;;;;3.13;0.50;;;6.60;99.90;;;;;;5066642;28;20046;-68
2023/11/16 09:24:10;;;;;;;2.35;0.45;;;6.70;99.90;;;;;;5067388;28;20060;-69
2023/11/16 09:26:37;;;;;;;7.10;0.77;;;6.80;99.90;;;;;;5070469;28;20568;-68
2023/11/16 09:29:06;;;;;;;1.38;0.30;;;6.90;99.90;;;;;;5070718;28;20036;-68
2023/11/16 09:31:32;;;;;;;5.38;0.80;;;6.90;99.90;;;;;;5069710;28;20047;-68
2023/11/16 09:34:00;;;;;;;1.92;0.47;;;7.00;99.90;;;;;;5069118;28;20052;-69
2023/11/16 09:36:27;;;;;;;4.18;0.50;;;7.00;99.90;;;;;;5067588;28;20474;-68
2023/11/16 09:38:56;;;;;;;4.63;0.60;;;7.10;99.90;;;;;;5067651;28;20911;-69
2023/11/16 09:41:28;;;;;;;4.90;0.95;;;7.10;99.90;;;;;;5069229;28;20033;-68
2023/11/16 09:44:01;;;;;;;6.50;0.50;;;7.20;99.90;;;;;;5071785;28;20391;-68
2023/11/16 09:46:31;;;;;;;4.63;0.75;;;7.20;99.90;;;;;;5071707;28;20201;-68
2023/11/16 09:48:58;;;;;;;2.90;0.52;;;7.90;99.90;;;;;;5068624;28;20033;-68
2023/11/16 09:51:26;;;;;;;3.78;0.60;;;7.40;99.90;;;;;;5069468;28;20479;-68
2023/11/16 09:53:58;;;;;;;3.00;0.55;;;7.40;99.90;;;;;;5070888;28;20076;-69
2023/11/16 09:56:27;;;;;;;3.05;0.45;;;7.40;99.90;;;;;;5069876;28;20471;-69
2023/11/16 09:59:06;;;;;;;4.22;0.50;;;7.50;99.90;;;;;;5066157;28;20090;-69
2023/11/16 10:01:38;;;;;;;4.93;0.95;;;7.50;99.90;;;;;;5084571;28;20090;-69
2023/11/16 10:04:05;;;;;;;3.15;0.57;;;7.50;99.90;;;;;;5069014;28;20082;-69
2023/11/16 10:06:32;;;;;;;5.40;0.70;;;7.50;99.90;;;;;;5071864;28;20487;-69
2023/11/16 10:09:02;;;;;;;2.83;0.80;;;7.60;99.90;;;;;;5096380;28;20572;-69
2023/11/16 10:11:31;;;;;;;2.88;0.57;;;7.50;99.90;;;;;;5070046;28;20123;-69
2023/11/16 10:13:57;;;;;;;3.22;0.50;;;7.60;99.90;;;;;;5069970;28;20033;-69
2023/11/16 10:16:26;;;;;;;11.55;1.23;;;7.60;99.90;;;;;;5070634;28;20094;-69
2023/11/16 10:18:59;;;;;;;4.78;0.70;;;7.60;99.90;;;;;;5069814;28;20037;-69
2023/11/16 10:21:26;;;;;;;3.60;0.40;;;7.60;99.90;;;;;;5068668;28;20503;-68
2023/11/16 10:23:51;;;;;;;4.28;0.43;;;7.60;99.90;;;;;;5070679;28;20044;-69
2023/11/16 10:26:20;;;;;;;4.35;0.85;;;7.60;99.90;;;;;;5066780;28;20058;-69
2023/11/16 10:28:53;;;;;;;4.18;0.40;;;7.60;99.90;;;;;;5098808;28;20505;-69
2023/11/16 10:31:22;;;;;;;9.20;0.50;;;7.60;99.90;;;;;;5062758;28;20052;-69
2023/11/16 10:33:49;;;;;;;2.45;0.55;;;7.60;99.90;;;;;;5064648;28;21544;-69
2023/11/16 10:36:15;;;;;;;4.25;0.90;;;7.70;99.90;;;;;;5065029;28;20055;-69
2023/11/16 10:38:45;;;;;;;4.03;0.70;;;7.60;99.90;;;;;;5039448;28;20040;-69
2023/11/16 10:41:12;;;;;;;6.00;0.70;;;7.60;99.90;;;;;;5062419;28;20059;-69
2023/11/16 10:43:38;;;;;;;2.13;0.55;;;7.70;99.90;;;;;;5065794;28;20043;-69
2023/11/16 10:46:05;;;;;;;6.68;0.80;;;7.90;99.90;;;;;;5062483;28;20074;-69
2023/11/16 10:48:30;;;;;;;4.28;0.52;;;7.90;99.90;;;;;;5062711;28;20032;-69
2023/11/16 10:50:58;;;;;;;6.93;0.68;;;7.90;99.90;;;;;;5060924;28;20047;-69
2023/11/16 10:53:27;;;;;;;3.50;0.50;;;8.00;99.90;;;;;;5062474;28;20193;-69
2023/11/16 10:55:58;;;;;;;3.88;0.50;;;8.00;99.90;;;;;;5064299;28;20051;-69
2023/11/16 10:58:29;;;;;;;2.55;0.65;;;8.00;99.90;;;;;;5075503;28;20052;-69
2023/11/16 11:01:07;;;;;;;4.97;0.93;;;8.10;99.90;;;;;;5094435;28;20044;-69
2023/11/16 11:03:35;;;;;;;2.58;0.88;;;8.10;99.90;;;;;;5063243;28;22337;-69
2023/11/16 11:06:03;;;;;;;8.07;0.50;;;8.10;99.90;;;;;;5065497;28;20044;-69
2023/11/16 11:08:40;;;;;;;4.43;0.80;;;8.20;99.90;;;;;;5063873;28;20116;-69
2023/11/16 11:11:07;;;;;;;5.00;0.93;;;8.20;99.90;;;;;;5061111;28;20139;-69
2023/11/16 11:13:33;;;;;;;3.00;0.50;;;8.20;99.90;;;;;;5064475;28;20048;-69
2023/11/16 11:16:06;;;;;;;2.72;0.40;;;8.20;99.90;;;;;;5061444;28;20044;-69
2023/11/16 11:18:42;;;;;;;1.10;0.40;;;8.20;99.90;;;;;;5063360;28;20044;-69
2023/11/16 11:21:08;;;;;;;;;;;8.40;99.90;;;;;;5065955;28;20055;-69
2023/11/16 11:23:37;;;;;;;2.80;0.45;;;8.20;99.90;;;;;;5094175;28;19942;-69
2023/11/16 11:26:05;;;;;;;2.78;0.82;;;8.10;99.90;;;;;;5064807;28;21006;-69
2023/11/16 11:28:35;;;;;;;4.10;0.65;;;8.10;99.90;;;;;;5063090;28;20045;-69
2023/11/16 11:31:05;;;;;;;4.95;0.82;;;8.10;99.90;;;;;;5061805;28;20051;-69
2023/11/16 11:33:36;;;;;;;4.32;0.47;;;8.20;99.90;;;;;;5092552;28;20066;-69
2023/11/16 11:36:07;;;;;;;3.30;0.60;;;8.30;99.90;;;;;;5095392;28;20121;-69
2023/11/16 11:38:36;;;;;;;3.03;0.95;;;8.30;99.90;;;;;;5061090;28;20064;-69
2023/11/16 11:41:06;;;;;;;2.28;0.60;;;8.40;99.90;;;;;;5062756;28;20087;-69
2023/11/16 11:43:33;;;;;;;4.55;0.63;;;8.30;99.90;;;;;;5063160;28;20543;-69
2023/11/16 11:45:59;;;;;;;6.22;0.52;;;8.30;99.90;;;;;;5094715;28;20102;-69
2023/11/16 11:48:26;;;;;;;6.25;0.70;;;8.30;99.90;;;;;;5048413;28;20123;-69
2023/11/16 11:50:56;;;;;;;7.25;1.08;;;8.30;99.90;;;;;;5090929;28;20085;-69
2023/11/16 11:53:29;;;;;;;1.50;0.40;;;8.40;99.90;;;;;;5062035;28;20044;-69
2023/11/16 11:55:57;;;;;;;3.13;0.70;;;8.50;99.90;;;;;;5064782;28;20137;-69
2023/11/16 11:58:23;;;;;;;4.28;0.52;;;8.50;99.90;;;;;;5060739;28;20986;-69
2023/11/16 12:00:50;;;;;;;1.55;0.45;;;8.60;99.90;;;;;;5075570;28;20040;-69
2023/11/16 12:03:17;;;;;;;4.70;0.70;;;8.50;99.90;;;;;;5063703;28;20041;-69
2023/11/16 12:05:47;;;;;;;4.43;0.50;;;8.60;99.90;;;;;;5061946;28;20643;-69
2023/11/16 12:08:13;;;;;;;3.92;0.47;;;8.60;99.90;;;;;;5064518;28;20036;-69
2023/11/16 12:10:39;;;;;;;4.55;0.85;;;8.60;99.90;;;;;;5062341;28;20047;-69
2023/11/16 12:13:07;;;;;;;2.70;0.40;;;8.60;99.90;;;;;;5061737;28;20032;-69
2023/11/16 12:15:34;;;;;;;4.65;0.80;;;8.60;99.90;;;;;;5057998;28;20079;-69
2023/11/16 12:18:06;;;;;;;5.38;0.45;;;8.70;99.90;;;;;;5046420;28;20041;-69
2023/11/16 12:20:33;;;;;;;2.95;0.40;;;8.70;99.90;;;;;;5059088;28;20056;-69
2023/11/16 12:23:01;;;;;;;5.75;1.27;;;8.70;99.90;;;;;;5094076;28;20052;-69
2023/11/16 12:25:29;;;;;;;3.60;1.15;;;8.80;99.90;;;;;;5095974;28;20068;-69
2023/11/16 12:27:58;;;;;;;2.50;0.30;;;8.80;99.90;;;;;;5060924;28;20649;-69
2023/11/16 12:30:24;;;;;;;3.05;0.82;;;8.80;99.90;;;;;;5042358;28;20088;-69
2023/11/16 12:32:49;;;;;;;5.13;0.60;;;8.90;99.90;;;;;;5062264;28;20072;-68
2023/11/16 12:35:15;;;;;;;5.25;0.50;;;8.90;99.90;;;;;;5060608;28;20044;-70
2023/11/16 12:37:43;;;;;;;7.07;0.63;;;8.90;99.90;;;;;;5065889;28;20062;-71
2023/11/16 12:40:17;;;;;;;4.65;0.60;;;8.90;99.90;;;;;;5062598;28;20086;-68
2023/11/16 12:42:43;;;;;;;4.05;0.30;;;8.90;99.90;;;;;;5091467;28;20059;-68
2023/11/16 12:45:10;;;;;;;9.13;0.88;;;8.90;99.90;;;;;;5065903;28;20032;-69
2023/11/16 12:47:39;;;;;;;3.10;0.40;;;8.90;99.90;;;;;;5063880;28;20040;-69
2023/11/16 12:50:06;;;;;;;3.30;0.40;;;8.90;99.90;;;;;;5060197;28;20086;-68
2023/11/16 12:52:34;;;;;;;5.80;0.60;;;8.80;99.90;;;;;;5060946;28;20063;-68
2023/11/16 12:55:00;;;;;;;2.65;0.68;;;8.80;99.90;;;;;;5041602;28;20044;-68
2023/11/16 12:57:25;;;;;;;6.30;1.30;;;8.80;99.90;;;;;;5062066;28;20043;-68
2023/11/16 12:59:53;;;;;;;4.88;0.73;;;8.70;99.90;;;;;;5062362;28;20044;-69
2023/11/16 13:02:18;;;;;;;2.90;0.80;;;8.60;99.90;;;;;;5062439;28;20049;-69